createdAt,value
2022-11-07T00:00:29.338Z,77.10
2022-11-07T00:02:56.388Z,76.90
2022-11-07T00:05:23.301Z,77.08
2022-11-07T00:07:50.178Z,76.43
2022-11-07T00:10:17.104Z,76.44
2022-11-07T00:12:43.972Z,76.92
2022-11-07T00:15:11.017Z,76.96
2022-11-07T00:17:37.868Z,77.42
2022-11-07T00:20:05.196Z,77.28
2022-11-07T00:22:31.910Z,77.75
2022-11-07T00:24:58.802Z,77.36
2022-11-07T00:27:25.759Z,77.42
2022-11-07T00:29:52.693Z,77.16
2022-11-07T00:32:19.523Z,77.44
2022-11-07T00:34:46.380Z,77.52
2022-11-07T00:37:13.242Z,77.21
2022-11-07T00:39:40.079Z,76.70
2022-11-07T00:42:07.022Z,76.83
2022-11-07T00:44:33.829Z,76.86
2022-11-07T00:47:00.717Z,76.40
2022-11-07T00:49:27.550Z,76.35
2022-11-07T00:51:54.372Z,76.82
2022-11-07T00:54:21.193Z,76.07
2022-11-07T00:56:48.098Z,76.19
2022-11-07T00:59:14.929Z,77.01
2022-11-07T01:01:41.907Z,76.70
2022-11-07T01:04:31.205Z,76.80
2022-11-07T01:06:58.291Z,75.94
2022-11-07T01:09:25.232Z,77.35
2022-11-07T01:11:52.076Z,77.34
2022-11-07T01:14:21.675Z,76.96
2022-11-07T01:16:48.963Z,77.47
2022-11-07T01:19:16.613Z,79.16
2022-11-07T01:21:43.547Z,79.14
2022-11-07T01:24:13.154Z,79.08
2022-11-07T01:26:41.269Z,77.99
2022-11-07T01:29:08.212Z,77.78
2022-11-07T01:31:35.355Z,77.44
2022-11-07T01:34:02.940Z,77.32
2022-11-07T01:36:30.138Z,76.94
2022-11-07T01:38:57.309Z,76.47
2022-11-07T01:41:27.179Z,76.48
2022-11-07T01:44:06.206Z,76.56
2022-11-07T01:46:44.442Z,76.72
2022-11-07T01:49:29.727Z,76.78
2022-11-07T01:52:14.957Z,77.86
2022-11-07T01:54:48.904Z,77.47
2022-11-07T01:57:23.939Z,77.50
2022-11-07T01:59:54.902Z,77.57
2022-11-07T02:02:25.650Z,77.68
2022-11-07T02:04:54.759Z,77.15
2022-11-07T02:07:24.669Z,76.13
2022-11-07T02:09:53.300Z,77.08
2022-11-07T02:12:22.149Z,78.77
2022-11-07T02:14:49.288Z,80.61
2022-11-07T02:17:16.853Z,80.42
2022-11-07T02:19:55.929Z,80.67
2022-11-07T02:22:22.697Z,81.83
2022-11-07T02:24:54.042Z,80.52
2022-11-07T02:27:25.037Z,80.63
2022-11-07T02:29:57.998Z,80.07
2022-11-07T02:32:24.946Z,80.11
2022-11-07T02:35:02.582Z,79.97
2022-11-07T02:37:33.069Z,78.76
2022-11-07T02:40:06.416Z,78.62
2022-11-07T02:42:43.610Z,78.72
2022-11-07T02:45:15.336Z,79.45
2022-11-07T02:47:42.591Z,79.74
2022-11-07T02:50:12.518Z,79.10
2022-11-07T02:52:39.360Z,81.17
2022-11-07T02:55:07.432Z,81.63
2022-11-07T02:57:34.609Z,82.79
2022-11-07T03:00:01.882Z,83.33
2022-11-07T03:02:30.441Z,81.81
2022-11-07T03:04:58.389Z,79.98
2022-11-07T03:07:26.026Z,80.18
2022-11-07T03:09:52.869Z,81.01
2022-11-07T03:12:19.728Z,81.88
2022-11-07T03:14:46.615Z,81.21
2022-11-07T03:17:13.627Z,81.00
2022-11-07T03:19:40.469Z,80.19
2022-11-07T03:22:07.338Z,79.88
2022-11-07T03:24:34.221Z,79.44
2022-11-07T03:27:01.088Z,79.11
2022-11-07T03:29:27.892Z,79.60
2022-11-07T03:31:54.711Z,78.47
2022-11-07T03:34:21.589Z,79.07
2022-11-07T03:36:48.465Z,79.20
2022-11-07T03:39:15.334Z,79.26
2022-11-07T03:41:42.157Z,79.29
2022-11-07T03:44:08.986Z,81.92
2022-11-07T03:46:35.976Z,82.73
2022-11-07T03:49:02.963Z,83.66
2022-11-07T03:51:29.767Z,83.23
2022-11-07T03:53:56.576Z,81.21
2022-11-07T03:56:23.460Z,80.90
2022-11-07T03:58:50.310Z,79.55
2022-11-07T04:01:17.574Z,79.91
2022-11-07T04:03:44.469Z,78.62
2022-11-07T04:06:11.334Z,77.93
2022-11-07T04:08:38.647Z,77.30
2022-11-07T04:11:05.617Z,77.91
2022-11-07T04:13:51.001Z,78.05
2022-11-07T04:16:38.001Z,77.92
2022-11-07T04:19:04.812Z,78.58
2022-11-07T04:21:31.646Z,77.78
2022-11-07T04:23:58.509Z,77.09
2022-11-07T04:26:44.010Z,77.67
2022-11-07T04:29:10.938Z,78.44
2022-11-07T04:31:37.737Z,78.15
2022-11-07T04:34:04.644Z,77.73
2022-11-07T04:36:31.547Z,77.20
2022-11-07T04:38:58.427Z,76.69
2022-11-07T04:41:25.295Z,76.38
2022-11-07T04:43:52.241Z,76.42
2022-11-07T04:46:19.194Z,75.79
2022-11-07T04:48:46.069Z,75.71
2022-11-07T04:51:18.729Z,76.13
2022-11-07T04:53:45.627Z,76.79
2022-11-07T04:56:12.517Z,75.86
2022-11-07T04:58:39.474Z,76.52
2022-11-07T05:01:06.450Z,75.61
2022-11-07T05:03:36.301Z,76.12
2022-11-07T05:06:07.485Z,76.27
2022-11-07T05:08:34.304Z,75.43
2022-11-07T05:11:01.160Z,75.94
2022-11-07T05:13:28.346Z,76.26
2022-11-07T05:15:55.324Z,76.84
2022-11-07T05:18:25.108Z,76.90
2022-11-07T05:20:52.033Z,77.77
2022-11-07T05:23:19.550Z,77.43
2022-11-07T05:25:52.024Z,77.00
2022-11-07T05:28:29.866Z,76.13
2022-11-07T05:31:04.071Z,76.03
2022-11-07T05:33:31.682Z,75.96
2022-11-07T05:36:20.027Z,76.01
2022-11-07T05:38:49.647Z,76.33
2022-11-07T05:41:18.087Z,75.57
2022-11-07T05:43:45.546Z,76.26
2022-11-07T05:46:12.425Z,77.17
2022-11-07T05:48:39.523Z,76.40
2022-11-07T05:51:07.726Z,78.00
2022-11-07T05:53:34.634Z,78.26
2022-11-07T05:56:01.618Z,77.64
2022-11-07T05:58:28.521Z,76.98
2022-11-07T06:00:55.425Z,77.18
2022-11-07T06:03:22.782Z,75.93
2022-11-07T06:05:49.690Z,75.11
2022-11-07T06:08:16.575Z,75.24
2022-11-07T06:10:44.234Z,75.17
2022-11-07T06:13:14.715Z,74.47
2022-11-07T06:15:43.381Z,74.83
2022-11-07T06:18:21.200Z,75.10
2022-11-07T06:20:48.173Z,74.07
2022-11-07T06:23:15.949Z,74.82
2022-11-07T06:25:43.589Z,74.15
2022-11-07T06:28:12.547Z,75.32
2022-11-07T06:30:39.745Z,74.36
2022-11-07T06:33:14.008Z,74.13
2022-11-07T06:35:41.580Z,73.12
2022-11-07T06:38:12.931Z,73.03
2022-11-07T06:40:41.345Z,72.75
2022-11-07T06:43:18.176Z,71.79
2022-11-07T06:45:46.587Z,72.13
2022-11-07T06:48:13.752Z,72.47
2022-11-07T06:50:40.722Z,72.56
2022-11-07T06:53:11.482Z,71.70
2022-11-07T06:55:39.313Z,72.64
2022-11-07T06:58:06.924Z,73.16
2022-11-07T07:00:35.839Z,74.04
2022-11-07T07:03:03.203Z,73.16
2022-11-07T07:05:30.287Z,74.69
2022-11-07T07:07:57.204Z,75.57
2022-11-07T07:10:25.241Z,74.96
2022-11-07T07:12:53.875Z,74.44
2022-11-07T07:15:21.105Z,73.95
2022-11-07T07:17:48.924Z,73.58
2022-11-07T07:20:15.869Z,73.38
2022-11-07T07:22:44.427Z,73.55
2022-11-07T07:25:11.781Z,73.45
2022-11-07T07:27:40.049Z,73.22
2022-11-07T07:30:07.608Z,72.30
2022-11-07T07:32:37.480Z,71.69
2022-11-07T07:35:05.196Z,71.78
2022-11-07T07:37:32.126Z,71.52
2022-11-07T07:39:59.043Z,71.70
2022-11-07T07:42:25.974Z,70.63
2022-11-07T07:44:54.524Z,70.53
2022-11-07T07:47:21.419Z,70.22
2022-11-07T07:49:48.357Z,69.64
2022-11-07T07:52:15.232Z,69.09
2022-11-07T07:54:42.104Z,69.17
2022-11-07T07:57:09.016Z,68.62
2022-11-07T07:59:36.109Z,69.14
2022-11-07T08:02:03.237Z,69.48
2022-11-07T08:04:30.228Z,68.74
2022-11-07T08:06:57.099Z,68.64
2022-11-07T08:09:24.002Z,67.97
2022-11-07T08:11:50.931Z,68.09
2022-11-07T08:14:17.903Z,68.07
2022-11-07T08:16:44.857Z,67.14
2022-11-07T08:19:11.697Z,66.62
2022-11-07T08:21:38.697Z,66.11
2022-11-07T08:24:06.019Z,66.20
2022-11-07T08:33:15.091Z,66.51
2022-11-07T08:35:42.862Z,67.07
2022-11-07T08:38:10.057Z,66.81
2022-11-07T08:40:36.944Z,67.25
2022-11-07T08:43:03.773Z,67.41
2022-11-07T08:45:30.847Z,67.22
2022-11-07T08:47:59.219Z,67.47
2022-11-07T08:50:26.961Z,67.08
2022-11-07T08:52:59.580Z,65.96
2022-11-07T08:55:29.606Z,65.34
2022-11-07T08:58:05.241Z,65.29
2022-11-07T09:00:33.201Z,65.02
2022-11-07T09:03:38.699Z,64.11
2022-11-07T09:05:53.031Z,64.01
2022-11-07T09:08:20.030Z,63.36
2022-11-07T09:10:47.030Z,63.40
2022-11-07T09:13:15.247Z,63.25
2022-11-07T09:19:03.063Z,62.53
2022-11-07T09:21:30.057Z,62.37
2022-11-07T09:23:56.955Z,62.40
2022-11-07T09:26:25.671Z,61.72
2022-11-07T09:28:56.134Z,61.40
2022-11-07T09:31:26.934Z,61.23
2022-11-07T09:33:54.050Z,61.38
2022-11-07T09:36:22.315Z,61.08
2022-11-07T09:38:49.282Z,60.71
2022-11-07T09:41:33.137Z,60.20
2022-11-07T09:44:14.969Z,60.23
2022-11-07T09:47:00.813Z,59.82
2022-11-07T09:49:47.373Z,59.55
2022-11-07T09:52:32.490Z,59.12
2022-11-07T09:55:09.048Z,59.79
2022-11-07T09:57:37.759Z,58.67
2022-11-07T10:00:11.472Z,58.84
2022-11-07T10:02:43.682Z,58.57
2022-11-07T10:05:15.546Z,58.06
2022-11-07T10:07:58.513Z,57.30
2022-11-07T10:10:42.355Z,57.02
2022-11-07T10:13:50.278Z,57.01
2022-11-07T10:16:38.572Z,56.43
2022-11-07T10:19:32.692Z,56.47
2022-11-07T10:22:05.559Z,55.93
2022-11-07T10:24:35.697Z,55.35
2022-11-07T10:27:03.009Z,55.30
2022-11-07T10:29:44.625Z,55.06
2022-11-07T10:32:41.020Z,55.22
2022-11-07T10:35:29.648Z,55.13
2022-11-07T10:38:01.893Z,55.63
2022-11-07T10:40:41.694Z,55.53
2022-11-07T10:43:16.204Z,55.71
2022-11-07T10:45:43.623Z,56.44
2022-11-07T10:48:14.408Z,56.33
2022-11-07T10:50:51.363Z,56.52
2022-11-07T10:53:22.510Z,56.15
2022-11-07T10:55:51.195Z,55.66
2022-11-07T10:58:30.409Z,56.40
2022-11-07T11:01:03.458Z,55.40
2022-11-07T11:03:43.613Z,53.97
2022-11-07T11:06:17.763Z,54.35
2022-11-07T11:08:50.586Z,53.74
2022-11-07T11:11:37.647Z,53.59
2022-11-07T11:14:13.530Z,52.87
2022-11-07T11:16:42.816Z,53.35
2022-11-07T11:19:23.320Z,53.70
2022-11-07T11:21:53.405Z,53.34
2022-11-07T11:24:33.907Z,53.22
2022-11-07T11:27:10.978Z,53.07
2022-11-07T11:29:49.292Z,53.17
2022-11-07T11:32:35.463Z,52.94
2022-11-07T11:35:24.116Z,52.59
2022-11-07T11:37:59.197Z,52.48
2022-11-07T11:40:28.513Z,52.93
2022-11-07T11:43:14.671Z,54.29
2022-11-07T11:45:59.049Z,54.92
2022-11-07T11:48:40.548Z,54.72
2022-11-07T11:51:29.455Z,55.39
2022-11-07T11:53:56.946Z,55.11
2022-11-07T11:56:35.122Z,55.19
2022-11-07T11:59:23.979Z,55.36
2022-11-07T12:02:02.236Z,54.05
2022-11-07T12:04:33.408Z,53.98
2022-11-07T12:07:31.118Z,54.63
2022-11-07T12:10:06.068Z,54.79
2022-11-07T12:12:50.975Z,54.28
2022-11-07T12:15:28.318Z,53.69
2022-11-07T12:18:11.043Z,53.96
2022-11-07T12:21:02.740Z,53.18
2022-11-07T12:23:45.286Z,53.13
2022-11-07T12:26:26.325Z,53.31
2022-11-07T12:29:24.152Z,53.29
2022-11-07T12:31:57.091Z,52.96
2022-11-07T12:34:30.730Z,53.04
2022-11-07T12:37:24.970Z,53.99
2022-11-07T12:40:27.763Z,53.93
2022-11-07T12:43:23.703Z,53.27
2022-11-07T12:45:56.469Z,53.05
2022-11-07T12:48:38.409Z,52.67
2022-11-07T12:51:33.241Z,53.08
2022-11-07T12:54:33.577Z,53.69
2022-11-07T12:57:06.076Z,52.98
2022-11-07T12:59:36.247Z,53.06
2022-11-07T13:02:33.543Z,53.29
2022-11-07T13:05:16.854Z,53.96
2022-11-07T13:08:00.971Z,53.85
2022-11-07T13:10:45.960Z,53.92
2022-11-07T13:13:25.567Z,53.87
2022-11-07T13:16:16.084Z,53.76
2022-11-07T13:21:11.374Z,54.47
2022-11-07T13:23:38.918Z,54.08
2022-11-07T13:26:32.389Z,54.45
2022-11-07T13:29:02.168Z,53.99
2022-11-07T13:31:32.354Z,53.60
2022-11-07T13:34:19.475Z,54.13
2022-11-07T13:36:49.520Z,53.99
2022-11-07T13:39:17.442Z,54.30
2022-11-07T13:41:45.778Z,54.48
2022-11-07T13:44:22.120Z,54.27
2022-11-07T13:47:04.398Z,55.10
2022-11-07T13:49:44.259Z,54.24
2022-11-07T13:52:19.704Z,55.12
2022-11-07T13:55:01.002Z,56.17
2022-11-07T13:57:31.631Z,55.86
2022-11-07T14:00:05.345Z,55.60
2022-11-07T14:02:40.593Z,55.38
2022-11-07T14:05:18.471Z,54.57
2022-11-07T14:07:52.284Z,54.93
2022-11-07T14:10:26.374Z,54.62
2022-11-07T14:13:02.848Z,55.08
2022-11-07T14:15:30.679Z,55.39
2022-11-07T14:17:57.760Z,54.80
2022-11-07T14:20:25.235Z,55.47
2022-11-07T14:22:58.191Z,55.43
2022-11-07T14:25:28.037Z,55.79
2022-11-07T14:27:55.229Z,55.44
2022-11-07T14:30:24.109Z,55.10
2022-11-07T14:33:00.363Z,55.69
2022-11-07T14:35:30.847Z,55.84
2022-11-07T14:37:58.596Z,56.41
2022-11-07T14:40:27.071Z,57.42
2022-11-07T14:42:54.984Z,57.92
2022-11-07T14:45:48.524Z,59.05
2022-11-07T14:48:14.078Z,59.38
2022-11-07T15:04:00.589Z,61.66
2022-11-07T15:06:34.540Z,62.29
2022-11-07T15:09:06.885Z,62.52
2022-11-07T15:11:36.310Z,62.92
2022-11-07T15:14:20.357Z,62.36
2022-11-07T15:16:49.631Z,62.58
2022-11-07T15:19:21.273Z,62.99
2022-11-07T15:21:55.253Z,63.08
2022-11-07T15:24:44.194Z,63.65
2022-11-07T15:27:13.870Z,64.21
2022-11-07T15:29:50.062Z,63.95
2022-11-07T15:32:19.555Z,63.87
2022-11-07T15:35:07.955Z,64.11
2022-11-07T15:37:37.688Z,64.35
2022-11-07T15:40:16.525Z,64.37
2022-11-07T15:42:43.441Z,64.37
2022-11-07T15:45:10.784Z,64.80
2022-11-07T15:47:38.673Z,64.47
2022-11-07T15:50:15.534Z,64.80
2022-11-07T15:52:43.799Z,65.17
2022-11-07T15:55:15.799Z,64.67
2022-11-07T15:57:45.107Z,64.68
2022-11-07T16:00:19.962Z,65.10
2022-11-07T16:02:47.505Z,65.06
2022-11-07T16:05:15.369Z,64.76
2022-11-07T16:07:44.768Z,64.59
2022-11-07T16:10:22.519Z,65.50
2022-11-07T16:12:51.110Z,65.93
2022-11-07T16:15:20.189Z,65.34
2022-11-07T16:17:47.352Z,65.54
2022-11-07T16:20:23.926Z,65.46
2022-11-07T16:22:52.251Z,65.77
2022-11-07T16:25:23.361Z,66.57
2022-11-07T16:27:55.909Z,66.99
2022-11-07T16:30:23.093Z,66.54
2022-11-07T16:32:49.951Z,66.91
2022-11-07T16:35:17.259Z,66.50
2022-11-07T16:37:44.135Z,66.57
2022-11-07T16:40:18.226Z,67.08
2022-11-07T16:42:45.836Z,67.02
2022-11-07T16:45:19.161Z,67.31
2022-11-07T16:47:46.381Z,66.65
2022-11-07T16:50:16.965Z,66.94
2022-11-07T16:52:43.961Z,66.72
2022-11-07T16:55:16.124Z,66.72
2022-11-07T16:57:43.356Z,67.33
2022-11-07T17:00:22.394Z,67.60
2022-11-07T17:02:50.095Z,68.33
2022-11-07T17:05:17.538Z,68.67
2022-11-07T17:07:44.509Z,68.98
2022-11-07T17:10:16.632Z,68.97
2022-11-07T17:12:43.496Z,68.70
2022-11-07T17:15:10.794Z,68.64
2022-11-07T17:17:38.137Z,69.29
2022-11-07T17:20:06.965Z,69.56
2022-11-07T17:22:33.836Z,68.88
2022-11-07T17:25:01.027Z,69.24
2022-11-07T17:27:28.291Z,69.57
2022-11-07T17:29:55.259Z,69.27
2022-11-07T17:32:22.370Z,68.70
2022-11-07T17:35:04.677Z,69.03
2022-11-07T17:37:36.869Z,69.04
2022-11-07T17:40:05.155Z,69.38
2022-11-07T17:42:37.624Z,69.33
2022-11-07T17:45:06.184Z,69.59
2022-11-07T17:47:36.346Z,69.25
2022-11-07T17:50:15.649Z,69.13
2022-11-07T17:52:42.545Z,69.35
2022-11-07T17:55:10.051Z,69.23
2022-11-07T17:57:39.108Z,69.18
2022-11-07T18:00:17.059Z,68.96
2022-11-07T18:02:44.853Z,68.94
2022-11-07T18:05:33.006Z,68.85
2022-11-07T18:08:01.174Z,69.70
2022-11-07T18:10:28.125Z,70.63
2022-11-07T18:12:57.043Z,70.56
2022-11-07T18:15:23.913Z,71.56
2022-11-07T18:17:50.762Z,71.67
2022-11-07T18:20:17.695Z,71.07
2022-11-07T18:22:44.573Z,70.76
2022-11-07T18:25:11.466Z,70.65
2022-11-07T18:27:39.224Z,70.01
2022-11-07T18:30:06.675Z,69.69
2022-11-07T18:32:36.368Z,69.03
2022-11-07T18:35:06.117Z,69.07
2022-11-07T18:37:33.705Z,68.80
2022-11-07T18:40:00.803Z,70.23
2022-11-07T18:42:29.156Z,68.89
2022-11-07T18:44:58.540Z,70.04
2022-11-07T18:47:25.822Z,70.99
2022-11-07T18:49:56.811Z,70.70
2022-11-07T18:52:24.613Z,71.75
2022-11-07T18:54:51.809Z,73.13
2022-11-07T18:57:18.826Z,72.50
2022-11-07T18:59:46.313Z,72.18
2022-11-07T19:02:13.903Z,72.56
2022-11-07T19:04:41.198Z,72.61
2022-11-07T19:07:08.050Z,71.84
2022-11-07T19:09:35.851Z,72.02
2022-11-07T19:12:03.605Z,72.89
2022-11-07T19:14:31.296Z,73.15
2022-11-07T19:16:59.788Z,72.61
2022-11-07T19:19:26.901Z,72.94
2022-11-07T19:21:53.817Z,71.39
2022-11-07T19:24:20.930Z,70.58
2022-11-07T19:26:48.220Z,70.64
2022-11-07T19:29:16.767Z,70.30
2022-11-07T19:31:43.964Z,70.29
2022-11-07T19:34:11.003Z,71.53
2022-11-07T19:36:38.176Z,70.23
2022-11-07T19:39:05.512Z,70.25
2022-11-07T19:41:32.413Z,69.72
2022-11-07T19:44:01.825Z,69.85
2022-11-07T19:46:29.331Z,68.79
2022-11-07T19:48:56.683Z,69.08
2022-11-07T19:51:23.611Z,69.18
2022-11-07T19:53:55.637Z,69.05
2022-11-07T19:56:24.036Z,70.09
2022-11-07T19:58:51.146Z,70.15
2022-11-07T20:01:20.512Z,70.31
2022-11-07T20:03:49.693Z,70.65
2022-11-07T20:06:19.574Z,70.14
2022-11-07T20:08:46.556Z,69.92
2022-11-07T20:11:18.713Z,69.64
2022-11-07T20:13:46.258Z,69.40
2022-11-07T20:16:13.377Z,69.17
2022-11-07T20:18:41.173Z,68.99
2022-11-07T20:21:12.951Z,69.81
2022-11-07T20:23:41.749Z,69.47
2022-11-07T20:26:10.513Z,69.30
2022-11-07T20:28:37.520Z,69.60
2022-11-07T20:31:09.719Z,69.87
2022-11-07T20:33:36.568Z,69.09
2022-11-07T20:36:06.804Z,68.85
2022-11-07T20:38:34.003Z,68.89
2022-11-07T20:41:02.958Z,68.81
2022-11-07T20:43:30.255Z,69.05
2022-11-07T20:45:57.219Z,69.53
2022-11-07T20:48:24.064Z,69.62
2022-11-07T20:50:50.924Z,69.66
2022-11-07T20:53:18.690Z,69.47
2022-11-07T20:55:46.371Z,68.99
2022-11-07T20:58:13.240Z,69.20
2022-11-07T21:00:40.935Z,69.04
2022-11-07T21:03:14.012Z,68.77
2022-11-07T21:05:41.097Z,68.18
2022-11-07T21:08:07.923Z,68.44
2022-11-07T21:10:34.867Z,68.28
2022-11-07T21:13:01.815Z,68.10
2022-11-07T21:15:29.292Z,67.71
2022-11-07T21:17:56.242Z,67.57
2022-11-07T21:20:24.609Z,67.26
2022-11-07T21:22:51.493Z,67.45
2022-11-07T21:25:18.423Z,67.78
2022-11-07T21:27:45.314Z,68.32
2022-11-07T21:30:13.325Z,68.42
2022-11-07T21:32:40.376Z,68.77
2022-11-07T21:35:07.674Z,68.60
2022-11-07T21:37:34.548Z,69.12
2022-11-07T21:40:01.602Z,68.84
2022-11-07T21:42:28.578Z,68.86
2022-11-07T21:44:55.414Z,68.82
2022-11-07T21:47:22.365Z,70.10
2022-11-07T21:49:52.363Z,69.93
2022-11-07T21:52:19.178Z,70.01
2022-11-07T21:54:46.514Z,69.33
2022-11-07T21:57:13.475Z,68.25
2022-11-07T21:59:40.269Z,69.38
2022-11-07T22:02:07.198Z,71.11
2022-11-07T22:04:35.364Z,71.34
2022-11-07T22:07:02.477Z,71.95
2022-11-07T22:09:29.429Z,72.67
2022-11-07T22:11:56.427Z,71.92
2022-11-07T22:14:23.349Z,72.04
2022-11-07T22:16:51.395Z,72.59
2022-11-07T22:19:18.910Z,72.80
2022-11-07T22:21:45.824Z,71.45
2022-11-07T22:24:12.816Z,71.02
2022-11-07T22:26:39.779Z,71.27
2022-11-07T22:29:06.973Z,70.78
2022-11-07T22:31:33.923Z,70.80
2022-11-07T22:34:01.216Z,70.34
2022-11-07T22:36:28.689Z,71.02
2022-11-07T22:38:57.523Z,71.88
2022-11-07T22:41:25.874Z,70.98
2022-11-07T22:43:53.124Z,71.54
2022-11-07T22:46:22.866Z,72.74
2022-11-07T22:48:51.401Z,72.41
2022-11-07T22:51:24.104Z,73.65
2022-11-07T22:54:05.733Z,73.69
2022-11-07T22:56:33.856Z,74.09
2022-11-07T22:59:01.017Z,73.95
2022-11-07T23:01:45.963Z,74.88
2022-11-07T23:04:15.065Z,75.29
2022-11-07T23:06:42.298Z,76.41
2022-11-07T23:09:12.985Z,76.91
2022-11-07T23:11:48.697Z,77.26
2022-11-07T23:14:19.181Z,78.29
2022-11-07T23:16:51.551Z,79.26
2022-11-07T23:19:21.079Z,79.06
2022-11-07T23:21:49.376Z,79.23
2022-11-07T23:24:16.992Z,79.81
2022-11-07T23:26:44.004Z,79.33
2022-11-07T23:29:14.495Z,79.06
2022-11-07T23:31:43.183Z,79.52
2022-11-07T23:34:10.503Z,79.23
2022-11-07T23:36:37.710Z,78.63
2022-11-07T23:39:07.062Z,77.74
2022-11-07T23:41:34.864Z,77.17
2022-11-07T23:44:02.845Z,76.06
2022-11-07T23:46:49.321Z,77.59
2022-11-07T23:49:34.775Z,77.79
2022-11-07T23:52:01.721Z,77.51
2022-11-07T23:54:46.907Z,77.86
2022-11-07T23:57:13.888Z,77.27
2022-11-07T23:59:59.225Z,76.81
